Airfield :
LOGIN :

Register | Disclaimer

   EN    FR    IT 

 










Legend :    VFR   Marginal VFR   IFR   Intensive IFR   Very Intensive IFR
Visi :
Ceiling :
>= 8 km
>= 3000ft
5 to 8 km
1000 to 3000 ft
1500m to 5 km
500 to 1000 ft
800 to 1500m
200 to 500 ft
< 800m
< 200 ft
Symbols :   Thunderstorms  Fog  Heavy snow  Heavy precipitations  Wind > 20 kt
SIGMETs :     Misc.  Thunderstorms  Icing  Turbulence  Mountain Waves  Volcanic Ashes







- Airport Elevation : 49 ft
- IATA code : SEN
- Download approach charts


EGMC - Southend

CURRENT METAR :
  • 201250Z 34017KT 9999 FEW014 BKN015 08/05 Q1019

EXPIRED METARs :
  • 201220Z 35015KT 9999 FEW012 BKN015 08/05 Q1019
  • 201150Z 36012KT 9999 FEW013 SCT019 07/05 Q1019
  • 201120Z 34011KT 9999 SCT006 08/06 Q1019
  • 201050Z 28003KT 2500 -DZ BR BKN006 07/06 Q1018
  • 201020Z 28001KT 2500 -DZ BR BKN006 06/06 Q1018

TAF TAF EGMC
Valid from the 20 at 12:00 until the 20 at 21:00 UTC


201105Z 2012/2021 28004KT 4000 -RADZ BR BKN006
BECMG 2012/2014 34012KT 9999 NSW BKN018
PROB30
TEMPO 2012/2014 RADZ
BECMG 2015/2018 6000 -RADZ BKN012
TEMPO 2018/2021 4000 RADZ BR BKN008
No reported NOTAMs for that airfield.



MET'MAP, your aeronautical weather chart ! - Copyright ORBIFLY December 2007 - Disclaimer

ORBIFLY MET'MAP TEAM :

Programming & Development : Alexandra Zaïnal
Concept & Development : Baudouin d'Aumeries
Co-Development & Prog : Marc-Olivier Méhu
Technical & hardware support : Manuel Goepfert

Contact : metmap@orbifly.com




SOURCES & CREDITS :

   NOAA